sensor_id;sensor_type;location;lat;lon;timestamp;P1;durP1;ratioP1;P2;durP2;ratioP2
28455;SDS011;15682;56.742;38.866;2024-03-07T00:00:10;9.8;;;3.0;;
28455;SDS011;15682;56.742;38.866;2024-03-07T00:02:09;7.5;;;3.0;;
28455;SDS011;15682;56.742;38.866;2024-03-07T00:04:09;11.7;;;3.2;;
28455;SDS011;15682;56.742;38.866;2024-03-07T00:06:09;10.0;;;3.1;;
28455;SDS011;15682;56.742;38.866;2024-03-07T00:08:09;11.8;;;3.1;;
28455;SDS011;15682;56.742;38.866;2024-03-07T00:10:09;7.4;;;2.9;;
28455;SDS011;15682;56.742;38.866;2024-03-07T00:12:08;8.7;;;2.8;;
28455;SDS011;15682;56.742;38.866;2024-03-07T00:14:08;11.5;;;3.1;;
28455;SDS011;15682;56.742;38.866;2024-03-07T00:16:08;13.5;;;3.6;;
28455;SDS011;15682;56.742;38.866;2024-03-07T00:18:08;6.7;;;3.1;;
28455;SDS011;15682;56.742;38.866;2024-03-07T00:20:08;12.8;;;3.3;;
28455;SDS011;15682;56.742;38.866;2024-03-07T00:22:08;9.3;;;3.0;;
28455;SDS011;15682;56.742;38.866;2024-03-07T00:24:07;8.6;;;3.1;;
28455;SDS011;15682;56.742;38.866;2024-03-07T00:26:07;9.9;;;3.1;;
28455;SDS011;15682;56.742;38.866;2024-03-07T00:28:07;13.9;;;3.9;;
28455;SDS011;15682;56.742;38.866;2024-03-07T00:30:07;10.7;;;3.2;;
28455;SDS011;15682;56.742;38.866;2024-03-07T00:32:07;10.5;;;3.4;;
28455;SDS011;15682;56.742;38.866;2024-03-07T00:34:07;13.6;;;3.3;;
28455;SDS011;15682;56.742;38.866;2024-03-07T00:36:06;10.2;;;2.9;;
28455;SDS011;15682;56.742;38.866;2024-03-07T00:38:06;9.3;;;3.4;;
28455;SDS011;15682;56.742;38.866;2024-03-07T00:40:06;9.7;;;3.2;;
28455;SDS011;15682;56.742;38.866;2024-03-07T00:42:06;12.0;;;4.7;;
28455;SDS011;15682;56.742;38.866;2024-03-07T00:44:06;12.9;;;4.4;;
28455;SDS011;15682;56.742;38.866;2024-03-07T00:46:05;25.4;;;10.0;;
28455;SDS011;15682;56.742;38.866;2024-03-07T00:48:05;23.2;;;7.7;;
28455;SDS011;15682;56.742;38.866;2024-03-07T00:50:05;22.5;;;8.2;;
28455;SDS011;15682;56.742;38.866;2024-03-07T00:52:05;21.1;;;7.7;;
28455;SDS011;15682;56.742;38.866;2024-03-07T00:54:05;19.5;;;7.1;;
28455;SDS011;15682;56.742;38.866;2024-03-07T00:56:04;18.6;;;6.9;;
28455;SDS011;15682;56.742;38.866;2024-03-07T00:58:04;17.9;;;7.0;;
28455;SDS011;15682;56.742;38.866;2024-03-07T01:00:05;20.4;;;6.7;;
28455;SDS011;15682;56.742;38.866;2024-03-07T01:02:04;19.2;;;6.2;;
28455;SDS011;15682;56.742;38.866;2024-03-07T01:04:04;20.8;;;6.9;;
28455;SDS011;15682;56.742;38.866;2024-03-07T01:06:04;21.6;;;7.3;;
28455;SDS011;15682;56.742;38.866;2024-03-07T01:08:04;18.4;;;7.0;;
28455;SDS011;15682;56.742;38.866;2024-03-07T01:10:04;24.0;;;8.4;;
28455;SDS011;15682;56.742;38.866;2024-03-07T01:12:03;23.5;;;8.4;;
28455;SDS011;15682;56.742;38.866;2024-03-07T01:14:03;30.5;;;12.1;;
28455;SDS011;15682;56.742;38.866;2024-03-07T01:16:03;57.9;;;21.9;;
28455;SDS011;15682;56.742;38.866;2024-03-07T01:18:03;54.2;;;21.4;;
28455;SDS011;15682;56.742;38.866;2024-03-07T01:20:03;43.6;;;16.6;;
28455;SDS011;15682;56.742;38.866;2024-03-07T01:22:02;46.7;;;16.2;;
28455;SDS011;15682;56.742;38.866;2024-03-07T01:24:02;39.5;;;15.1;;
28455;SDS011;15682;56.742;38.866;2024-03-07T01:26:02;24.4;;;9.6;;
28455;SDS011;15682;56.742;38.866;2024-03-07T01:28:02;26.7;;;9.9;;
28455;SDS011;15682;56.742;38.866;2024-03-07T01:30:02;22.8;;;7.2;;
28455;SDS011;15682;56.742;38.866;2024-03-07T01:32:01;24.7;;;8.9;;
28455;SDS011;15682;56.742;38.866;2024-03-07T01:34:01;24.8;;;9.0;;
28455;SDS011;15682;56.742;38.866;2024-03-07T01:36:01;22.0;;;7.6;;
28455;SDS011;15682;56.742;38.866;2024-03-07T01:38:01;19.6;;;6.3;;
28455;SDS011;15682;56.742;38.866;2024-03-07T01:40:01;19.1;;;7.3;;
28455;SDS011;15682;56.742;38.866;2024-03-07T01:42:00;18.2;;;7.1;;
28455;SDS011;15682;56.742;38.866;2024-03-07T01:44:00;20.4;;;7.4;;
28455;SDS011;15682;56.742;38.866;2024-03-07T01:46:00;21.5;;;7.3;;
28455;SDS011;15682;56.742;38.866;2024-03-07T01:48:00;23.1;;;8.5;;
28455;SDS011;15682;56.742;38.866;2024-03-07T01:50:00;16.7;;;6.7;;
28455;SDS011;15682;56.742;38.866;2024-03-07T01:51:59;22.4;;;7.4;;
28455;SDS011;15682;56.742;38.866;2024-03-07T01:53:59;20.2;;;6.9;;
28455;SDS011;15682;56.742;38.866;2024-03-07T01:55:59;18.8;;;6.1;;
28455;SDS011;15682;56.742;38.866;2024-03-07T01:57:59;19.3;;;5.8;;
28455;SDS011;15682;56.742;38.866;2024-03-07T01:59:59;21.3;;;5.9;;
28455;SDS011;15682;56.742;38.866;2024-03-07T02:01:58;14.5;;;4.9;;
28455;SDS011;15682;56.742;38.866;2024-03-07T02:03:58;13.1;;;5.1;;
28455;SDS011;15682;56.742;38.866;2024-03-07T02:05:58;18.2;;;5.4;;
28455;SDS011;15682;56.742;38.866;2024-03-07T02:07:58;11.0;;;4.7;;
28455;SDS011;15682;56.742;38.866;2024-03-07T02:09:59;13.7;;;5.1;;
28455;SDS011;15682;56.742;38.866;2024-03-07T02:11:57;15.1;;;4.7;;
28455;SDS011;15682;56.742;38.866;2024-03-07T02:13:57;12.8;;;4.6;;
28455;SDS011;15682;56.742;38.866;2024-03-07T02:15:57;9.1;;;3.9;;
28455;SDS011;15682;56.742;38.866;2024-03-07T02:17:57;13.6;;;4.7;;
28455;SDS011;15682;56.742;38.866;2024-03-07T02:19:57;19.4;;;4.6;;
28455;SDS011;15682;56.742;38.866;2024-03-07T02:21:56;9.7;;;3.4;;
28455;SDS011;15682;56.742;38.866;2024-03-07T02:23:56;8.4;;;3.2;;
28455;SDS011;15682;56.742;38.866;2024-03-07T02:25:56;7.5;;;2.9;;
28455;SDS011;15682;56.742;38.866;2024-03-07T02:27:56;11.0;;;2.9;;
28455;SDS011;15682;56.742;38.866;2024-03-07T02:29:56;8.2;;;3.1;;
28455;SDS011;15682;56.742;38.866;2024-03-07T02:31:55;9.3;;;2.7;;
28455;SDS011;15682;56.742;38.866;2024-03-07T02:33:55;11.5;;;3.2;;
28455;SDS011;15682;56.742;38.866;2024-03-07T02:35:55;7.0;;;2.7;;
28455;SDS011;15682;56.742;38.866;2024-03-07T02:37:55;7.8;;;2.9;;
28455;SDS011;15682;56.742;38.866;2024-03-07T02:39:55;14.1;;;3.4;;
28455;SDS011;15682;56.742;38.866;2024-03-07T02:41:54;12.3;;;3.5;;
28455;SDS011;15682;56.742;38.866;2024-03-07T02:43:54;13.3;;;3.5;;
28455;SDS011;15682;56.742;38.866;2024-03-07T02:45:54;10.7;;;3.2;;
28455;SDS011;15682;56.742;38.866;2024-03-07T02:47:54;11.7;;;3.5;;
28455;SDS011;15682;56.742;38.866;2024-03-07T02:49:53;11.3;;;3.7;;
28455;SDS011;15682;56.742;38.866;2024-03-07T02:51:53;15.4;;;3.8;;
28455;SDS011;15682;56.742;38.866;2024-03-07T02:53:53;11.1;;;3.6;;
28455;SDS011;15682;56.742;38.866;2024-03-07T02:55:53;11.7;;;3.3;;
28455;SDS011;15682;56.742;38.866;2024-03-07T02:57:53;10.3;;;3.9;;
28455;SDS011;15682;56.742;38.866;2024-03-07T02:59:52;8.4;;;2.9;;
28455;SDS011;15682;56.742;38.866;2024-03-07T03:01:52;8.8;;;3.1;;
28455;SDS011;15682;56.742;38.866;2024-03-07T03:03:52;9.0;;;3.1;;
28455;SDS011;15682;56.742;38.866;2024-03-07T03:05:52;8.0;;;3.1;;
28455;SDS011;15682;56.742;38.866;2024-03-07T03:07:51;8.4;;;3.0;;
28455;SDS011;15682;56.742;38.866;2024-03-07T03:09:51;11.2;;;3.1;;
28455;SDS011;15682;56.742;38.866;2024-03-07T03:11:51;8.6;;;3.4;;
28455;SDS011;15682;56.742;38.866;2024-03-07T03:13:51;9.6;;;3.5;;
28455;SDS011;15682;56.742;38.866;2024-03-07T03:15:50;10.0;;;3.3;;
28455;SDS011;15682;56.742;38.866;2024-03-07T03:17:50;8.6;;;3.1;;
28455;SDS011;15682;56.742;38.866;2024-03-07T03:19:50;8.9;;;3.5;;
28455;SDS011;15682;56.742;38.866;2024-03-07T03:21:50;13.3;;;3.5;;
28455;SDS011;15682;56.742;38.866;2024-03-07T03:23:50;12.2;;;3.5;;
28455;SDS011;15682;56.742;38.866;2024-03-07T03:25:49;13.8;;;3.5;;
28455;SDS011;15682;56.742;38.866;2024-03-07T03:27:49;9.2;;;3.4;;
28455;SDS011;15682;56.742;38.866;2024-03-07T03:29:49;10.2;;;3.6;;
28455;SDS011;15682;56.742;38.866;2024-03-07T03:31:49;10.2;;;3.7;;
28455;SDS011;15682;56.742;38.866;2024-03-07T03:33:48;10.8;;;3.7;;
28455;SDS011;15682;56.742;38.866;2024-03-07T03:35:48;22.5;;;6.9;;
28455;SDS011;15682;56.742;38.866;2024-03-07T03:37:48;18.1;;;6.4;;
28455;SDS011;15682;56.742;38.866;2024-03-07T03:39:48;14.2;;;5.1;;
28455;SDS011;15682;56.742;38.866;2024-03-07T03:41:47;12.6;;;3.7;;
28455;SDS011;15682;56.742;38.866;2024-03-07T03:43:47;9.4;;;3.4;;
28455;SDS011;15682;56.742;38.866;2024-03-07T03:45:47;12.1;;;4.1;;
28455;SDS011;15682;56.742;38.866;2024-03-07T03:47:47;11.4;;;3.4;;
28455;SDS011;15682;56.742;38.866;2024-03-07T03:49:47;11.2;;;3.6;;
28455;SDS011;15682;56.742;38.866;2024-03-07T03:51:46;11.1;;;3.9;;
28455;SDS011;15682;56.742;38.866;2024-03-07T03:53:46;12.3;;;4.1;;
28455;SDS011;15682;56.742;38.866;2024-03-07T03:55:46;12.6;;;4.1;;
28455;SDS011;15682;56.742;38.866;2024-03-07T03:57:46;11.5;;;4.2;;
28455;SDS011;15682;56.742;38.866;2024-03-07T03:59:45;13.1;;;4.1;;
28455;SDS011;15682;56.742;38.866;2024-03-07T04:01:45;18.7;;;4.1;;
28455;SDS011;15682;56.742;38.866;2024-03-07T04:03:45;20.2;;;4.3;;
28455;SDS011;15682;56.742;38.866;2024-03-07T04:05:45;16.6;;;4.4;;
28455;SDS011;15682;56.742;38.866;2024-03-07T04:07:44;22.5;;;6.5;;
28455;SDS011;15682;56.742;38.866;2024-03-07T04:09:44;64.7;;;15.4;;
28455;SDS011;15682;56.742;38.866;2024-03-07T04:11:44;161.9;;;39.1;;
28455;SDS011;15682;56.742;38.866;2024-03-07T04:13:44;227.6;;;54.0;;
28455;SDS011;15682;56.742;38.866;2024-03-07T04:15:43;293.3;;;69.5;;
28455;SDS011;15682;56.742;38.866;2024-03-07T04:17:43;305.8;;;74.4;;
28455;SDS011;15682;56.742;38.866;2024-03-07T04:19:43;288.2;;;71.8;;
28455;SDS011;15682;56.742;38.866;2024-03-07T04:21:43;216.6;;;52.5;;
28455;SDS011;15682;56.742;38.866;2024-03-07T04:23:42;250.3;;;58.9;;
28455;SDS011;15682;56.742;38.866;2024-03-07T04:25:42;173.5;;;42.8;;
28455;SDS011;15682;56.742;38.866;2024-03-07T04:27:42;134.6;;;34.3;;
28455;SDS011;15682;56.742;38.866;2024-03-07T04:29:42;66.8;;;17.0;;
28455;SDS011;15682;56.742;38.866;2024-03-07T04:31:41;48.2;;;13.0;;
28455;SDS011;15682;56.742;38.866;2024-03-07T04:33:41;35.5;;;11.0;;
28455;SDS011;15682;56.742;38.866;2024-03-07T04:35:41;30.5;;;9.1;;
28455;SDS011;15682;56.742;38.866;2024-03-07T04:37:41;26.0;;;8.3;;
28455;SDS011;15682;56.742;38.866;2024-03-07T04:39:40;30.3;;;8.1;;
28455;SDS011;15682;56.742;38.866;2024-03-07T04:41:40;31.7;;;7.5;;
28455;SDS011;15682;56.742;38.866;2024-03-07T04:43:40;37.5;;;9.8;;
28455;SDS011;15682;56.742;38.866;2024-03-07T04:45:40;19.4;;;6.7;;
28455;SDS011;15682;56.742;38.866;2024-03-07T04:47:40;25.5;;;7.4;;
28455;SDS011;15682;56.742;38.866;2024-03-07T04:49:39;22.8;;;7.7;;
28455;SDS011;15682;56.742;38.866;2024-03-07T04:51:39;18.1;;;6.8;;
28455;SDS011;15682;56.742;38.866;2024-03-07T04:53:39;23.6;;;6.8;;
28455;SDS011;15682;56.742;38.866;2024-03-07T04:55:38;26.2;;;6.3;;
28455;SDS011;15682;56.742;38.866;2024-03-07T04:57:39;17.7;;;6.4;;
28455;SDS011;15682;56.742;38.866;2024-03-07T04:59:38;24.8;;;6.3;;
28455;SDS011;15682;56.742;38.866;2024-03-07T05:01:38;19.2;;;5.9;;
28455;SDS011;15682;56.742;38.866;2024-03-07T05:03:38;23.1;;;5.6;;
28455;SDS011;15682;56.742;38.866;2024-03-07T05:05:37;18.9;;;5.8;;
28455;SDS011;15682;56.742;38.866;2024-03-07T05:07:37;24.4;;;5.4;;
28455;SDS011;15682;56.742;38.866;2024-03-07T05:09:37;17.1;;;5.2;;
28455;SDS011;15682;56.742;38.866;2024-03-07T05:11:37;17.6;;;5.2;;
28455;SDS011;15682;56.742;38.866;2024-03-07T05:13:36;19.0;;;5.5;;
28455;SDS011;15682;56.742;38.866;2024-03-07T05:15:36;27.4;;;5.7;;
28455;SDS011;15682;56.742;38.866;2024-03-07T05:17:36;21.1;;;4.8;;
28455;SDS011;15682;56.742;38.866;2024-03-07T05:19:36;18.7;;;4.9;;
28455;SDS011;15682;56.742;38.866;2024-03-07T05:21:35;18.1;;;5.3;;
28455;SDS011;15682;56.742;38.866;2024-03-07T05:23:35;18.0;;;6.6;;
28455;SDS011;15682;56.742;38.866;2024-03-07T05:25:35;28.7;;;8.6;;
28455;SDS011;15682;56.742;38.866;2024-03-07T05:27:35;19.2;;;6.1;;
28455;SDS011;15682;56.742;38.866;2024-03-07T05:29:34;29.6;;;8.4;;
28455;SDS011;15682;56.742;38.866;2024-03-07T05:31:34;39.4;;;11.8;;
28455;SDS011;15682;56.742;38.866;2024-03-07T05:33:34;27.2;;;7.5;;
28455;SDS011;15682;56.742;38.866;2024-03-07T05:35:34;22.1;;;6.1;;
28455;SDS011;15682;56.742;38.866;2024-03-07T05:37:34;22.1;;;6.5;;
28455;SDS011;15682;56.742;38.866;2024-03-07T05:39:33;22.2;;;6.5;;
28455;SDS011;15682;56.742;38.866;2024-03-07T05:41:33;23.4;;;5.7;;
28455;SDS011;15682;56.742;38.866;2024-03-07T05:43:33;23.3;;;5.6;;
28455;SDS011;15682;56.742;38.866;2024-03-07T05:45:33;25.3;;;6.3;;
28455;SDS011;15682;56.742;38.866;2024-03-07T05:47:33;17.8;;;5.3;;
28455;SDS011;15682;56.742;38.866;2024-03-07T05:49:32;18.0;;;5.6;;
28455;SDS011;15682;56.742;38.866;2024-03-07T05:51:32;14.6;;;5.1;;
28455;SDS011;15682;56.742;38.866;2024-03-07T05:53:32;22.7;;;5.7;;
28455;SDS011;15682;56.742;38.866;2024-03-07T05:55:32;16.2;;;5.0;;
28455;SDS011;15682;56.742;38.866;2024-03-07T05:57:32;21.7;;;5.6;;
28455;SDS011;15682;56.742;38.866;2024-03-07T05:59:31;19.0;;;5.5;;
28455;SDS011;15682;56.742;38.866;2024-03-07T06:01:31;11.7;;;4.8;;
28455;SDS011;15682;56.742;38.866;2024-03-07T06:03:31;18.6;;;4.9;;
28455;SDS011;15682;56.742;38.866;2024-03-07T06:05:31;15.4;;;5.1;;
28455;SDS011;15682;56.742;38.866;2024-03-07T06:07:31;26.5;;;5.2;;
28455;SDS011;15682;56.742;38.866;2024-03-07T06:09:30;29.8;;;5.5;;
28455;SDS011;15682;56.742;38.866;2024-03-07T06:11:30;21.4;;;5.4;;
28455;SDS011;15682;56.742;38.866;2024-03-07T06:13:30;19.9;;;5.6;;
28455;SDS011;15682;56.742;38.866;2024-03-07T06:15:30;18.0;;;5.6;;
28455;SDS011;15682;56.742;38.866;2024-03-07T06:17:30;18.4;;;5.1;;
28455;SDS011;15682;56.742;38.866;2024-03-07T06:19:30;20.2;;;6.6;;
28455;SDS011;15682;56.742;38.866;2024-03-07T06:21:29;25.8;;;6.2;;
28455;SDS011;15682;56.742;38.866;2024-03-07T06:23:29;23.8;;;6.0;;
28455;SDS011;15682;56.742;38.866;2024-03-07T06:25:29;15.8;;;5.2;;
28455;SDS011;15682;56.742;38.866;2024-03-07T06:27:29;15.7;;;5.7;;
28455;SDS011;15682;56.742;38.866;2024-03-07T06:29:29;14.4;;;5.5;;
28455;SDS011;15682;56.742;38.866;2024-03-07T06:31:29;19.1;;;7.4;;
28455;SDS011;15682;56.742;38.866;2024-03-07T06:33:28;15.7;;;6.5;;
28455;SDS011;15682;56.742;38.866;2024-03-07T06:35:28;18.9;;;6.4;;
28455;SDS011;15682;56.742;38.866;2024-03-07T06:37:28;19.0;;;5.8;;
28455;SDS011;15682;56.742;38.866;2024-03-07T06:39:28;18.7;;;6.5;;
28455;SDS011;15682;56.742;38.866;2024-03-07T06:41:28;15.8;;;6.1;;
28455;SDS011;15682;56.742;38.866;2024-03-07T06:43:28;17.7;;;5.8;;
28455;SDS011;15682;56.742;38.866;2024-03-07T06:45:28;24.5;;;6.6;;
28455;SDS011;15682;56.742;38.866;2024-03-07T06:47:27;20.5;;;6.8;;
28455;SDS011;15682;56.742;38.866;2024-03-07T06:49:27;20.6;;;6.5;;
28455;SDS011;15682;56.742;38.866;2024-03-07T06:51:27;24.9;;;7.9;;
28455;SDS011;15682;56.742;38.866;2024-03-07T06:53:27;27.1;;;7.9;;
28455;SDS011;15682;56.742;38.866;2024-03-07T06:55:27;38.1;;;11.0;;
28455;SDS011;15682;56.742;38.866;2024-03-07T06:57:27;44.8;;;11.8;;
28455;SDS011;15682;56.742;38.866;2024-03-07T06:59:27;51.2;;;16.4;;
28455;SDS011;15682;56.742;38.866;2024-03-07T07:01:26;51.5;;;16.6;;
28455;SDS011;15682;56.742;38.866;2024-03-07T07:03:26;46.3;;;15.5;;
28455;SDS011;15682;56.742;38.866;2024-03-07T07:05:26;36.8;;;12.3;;
28455;SDS011;15682;56.742;38.866;2024-03-07T07:07:26;50.1;;;15.3;;
28455;SDS011;15682;56.742;38.866;2024-03-07T07:09:26;53.4;;;14.8;;
28455;SDS011;15682;56.742;38.866;2024-03-07T07:11:26;40.7;;;12.7;;
28455;SDS011;15682;56.742;38.866;2024-03-07T07:13:26;36.9;;;10.9;;
28455;SDS011;15682;56.742;38.866;2024-03-07T07:15:26;40.0;;;10.6;;
28455;SDS011;15682;56.742;38.866;2024-03-07T07:17:25;40.4;;;12.6;;
28455;SDS011;15682;56.742;38.866;2024-03-07T07:19:25;37.9;;;11.7;;
28455;SDS011;15682;56.742;38.866;2024-03-07T07:21:25;24.7;;;9.2;;
28455;SDS011;15682;56.742;38.866;2024-03-07T07:23:25;28.6;;;8.3;;
28455;SDS011;15682;56.742;38.866;2024-03-07T07:25:25;22.6;;;6.5;;
28455;SDS011;15682;56.742;38.866;2024-03-07T07:27:25;18.0;;;4.7;;
28455;SDS011;15682;56.742;38.866;2024-03-07T07:29:25;16.1;;;5.1;;
28455;SDS011;15682;56.742;38.866;2024-03-07T07:31:25;16.3;;;4.1;;
28455;SDS011;15682;56.742;38.866;2024-03-07T07:33:25;15.0;;;4.6;;
28455;SDS011;15682;56.742;38.866;2024-03-07T07:35:25;13.0;;;4.7;;
28455;SDS011;15682;56.742;38.866;2024-03-07T07:37:24;13.7;;;4.9;;
28455;SDS011;15682;56.742;38.866;2024-03-07T07:39:24;17.9;;;5.1;;
28455;SDS011;15682;56.742;38.866;2024-03-07T07:41:24;15.8;;;5.4;;
28455;SDS011;15682;56.742;38.866;2024-03-07T07:43:24;16.9;;;5.9;;
28455;SDS011;15682;56.742;38.866;2024-03-07T07:45:24;25.0;;;9.3;;
28455;SDS011;15682;56.742;38.866;2024-03-07T07:47:24;16.2;;;5.6;;
28455;SDS011;15682;56.742;38.866;2024-03-07T07:49:24;16.3;;;6.3;;
28455;SDS011;15682;56.742;38.866;2024-03-07T07:51:24;16.2;;;5.6;;
28455;SDS011;15682;56.742;38.866;2024-03-07T07:53:24;13.5;;;5.8;;
28455;SDS011;15682;56.742;38.866;2024-03-07T07:55:25;14.8;;;5.0;;
28455;SDS011;15682;56.742;38.866;2024-03-07T07:57:24;14.3;;;4.5;;
28455;SDS011;15682;56.742;38.866;2024-03-07T07:59:24;13.9;;;5.4;;
28455;SDS011;15682;56.742;38.866;2024-03-07T08:01:23;17.7;;;5.9;;
28455;SDS011;15682;56.742;38.866;2024-03-07T08:03:23;16.2;;;5.5;;
28455;SDS011;15682;56.742;38.866;2024-03-07T08:05:24;16.5;;;5.6;;
28455;SDS011;15682;56.742;38.866;2024-03-07T08:07:23;22.3;;;8.6;;
28455;SDS011;15682;56.742;38.866;2024-03-07T08:09:23;24.9;;;10.1;;
28455;SDS011;15682;56.742;38.866;2024-03-07T08:11:23;22.5;;;7.1;;
28455;SDS011;15682;56.742;38.866;2024-03-07T08:13:23;15.6;;;5.1;;
28455;SDS011;15682;56.742;38.866;2024-03-07T08:15:24;17.0;;;4.8;;
28455;SDS011;15682;56.742;38.866;2024-03-07T08:17:23;14.6;;;5.2;;
28455;SDS011;15682;56.742;38.866;2024-03-07T08:19:23;14.1;;;5.2;;
28455;SDS011;15682;56.742;38.866;2024-03-07T08:21:23;9.0;;;4.2;;
28455;SDS011;15682;56.742;38.866;2024-03-07T08:23:23;11.8;;;4.4;;
28455;SDS011;15682;56.742;38.866;2024-03-07T08:25:24;10.8;;;3.9;;
28455;SDS011;15682;56.742;38.866;2024-03-07T08:27:23;13.5;;;3.8;;
28455;SDS011;15682;56.742;38.866;2024-03-07T08:29:23;10.1;;;3.6;;
28455;SDS011;15682;56.742;38.866;2024-03-07T08:31:23;13.3;;;3.8;;
28455;SDS011;15682;56.742;38.866;2024-03-07T08:33:23;14.1;;;3.7;;
28455;SDS011;15682;56.742;38.866;2024-03-07T08:35:23;29.0;;;9.8;;
28455;SDS011;15682;56.742;38.866;2024-03-07T08:37:23;12.1;;;4.8;;
28455;SDS011;15682;56.742;38.866;2024-03-07T08:39:23;15.6;;;3.8;;
28455;SDS011;15682;56.742;38.866;2024-03-07T08:41:22;14.7;;;4.3;;
28455;SDS011;15682;56.742;38.866;2024-03-07T08:43:22;10.2;;;3.5;;
28455;SDS011;15682;56.742;38.866;2024-03-07T08:45:23;14.1;;;4.0;;
28455;SDS011;15682;56.742;38.866;2024-03-07T08:47:22;15.8;;;3.5;;
28455;SDS011;15682;56.742;38.866;2024-03-07T08:49:22;11.3;;;3.4;;
28455;SDS011;15682;56.742;38.866;2024-03-07T08:51:22;7.4;;;3.2;;
28455;SDS011;15682;56.742;38.866;2024-03-07T08:53:22;5.4;;;2.7;;
28455;SDS011;15682;56.742;38.866;2024-03-07T08:55:23;9.0;;;2.8;;
28455;SDS011;15682;56.742;38.866;2024-03-07T08:57:22;10.0;;;3.2;;
28455;SDS011;15682;56.742;38.866;2024-03-07T08:59:22;10.3;;;3.3;;
28455;SDS011;15682;56.742;38.866;2024-03-07T09:01:22;10.2;;;3.4;;
28455;SDS011;15682;56.742;38.866;2024-03-07T09:03:22;8.7;;;3.0;;
28455;SDS011;15682;56.742;38.866;2024-03-07T09:05:22;11.1;;;3.1;;
28455;SDS011;15682;56.742;38.866;2024-03-07T09:07:22;7.5;;;3.3;;
28455;SDS011;15682;56.742;38.866;2024-03-07T09:09:22;8.9;;;3.0;;
28455;SDS011;15682;56.742;38.866;2024-03-07T09:11:22;6.2;;;3.0;;
28455;SDS011;15682;56.742;38.866;2024-03-07T09:13:22;8.9;;;2.9;;
28455;SDS011;15682;56.742;38.866;2024-03-07T09:15:22;11.1;;;2.7;;
28455;SDS011;15682;56.742;38.866;2024-03-07T09:17:22;5.9;;;3.1;;
28455;SDS011;15682;56.742;38.866;2024-03-07T09:19:22;10.2;;;2.9;;
28455;SDS011;15682;56.742;38.866;2024-03-07T09:21:22;6.0;;;2.7;;
28455;SDS011;15682;56.742;38.866;2024-03-07T09:23:22;6.5;;;3.3;;
28455;SDS011;15682;56.742;38.866;2024-03-07T09:25:22;8.7;;;3.4;;
28455;SDS011;15682;56.742;38.866;2024-03-07T09:27:22;12.5;;;3.5;;
28455;SDS011;15682;56.742;38.866;2024-03-07T09:29:22;8.8;;;2.8;;
28455;SDS011;15682;56.742;38.866;2024-03-07T09:31:22;6.7;;;2.6;;
28455;SDS011;15682;56.742;38.866;2024-03-07T09:33:22;6.2;;;2.6;;
28455;SDS011;15682;56.742;38.866;2024-03-07T09:35:22;7.0;;;2.5;;
28455;SDS011;15682;56.742;38.866;2024-03-07T09:37:22;6.3;;;2.7;;
28455;SDS011;15682;56.742;38.866;2024-03-07T09:39:21;5.8;;;2.7;;
28455;SDS011;15682;56.742;38.866;2024-03-07T09:41:21;6.0;;;2.7;;
28455;SDS011;15682;56.742;38.866;2024-03-07T09:43:21;5.8;;;2.5;;
28455;SDS011;15682;56.742;38.866;2024-03-07T09:45:22;6.3;;;2.5;;
28455;SDS011;15682;56.742;38.866;2024-03-07T09:47:21;8.5;;;2.6;;
28455;SDS011;15682;56.742;38.866;2024-03-07T09:49:21;6.3;;;2.7;;
28455;SDS011;15682;56.742;38.866;2024-03-07T09:51:21;6.8;;;2.3;;
28455;SDS011;15682;56.742;38.866;2024-03-07T09:53:21;9.0;;;2.6;;
28455;SDS011;15682;56.742;38.866;2024-03-07T09:55:21;6.5;;;2.6;;
28455;SDS011;15682;56.742;38.866;2024-03-07T09:57:21;6.8;;;2.8;;
28455;SDS011;15682;56.742;38.866;2024-03-07T09:59:22;5.8;;;2.5;;
28455;SDS011;15682;56.742;38.866;2024-03-07T10:01:21;8.3;;;2.6;;
28455;SDS011;15682;56.742;38.866;2024-03-07T10:03:21;5.8;;;2.6;;
28455;SDS011;15682;56.742;38.866;2024-03-07T10:05:22;5.2;;;2.6;;
28455;SDS011;15682;56.742;38.866;2024-03-07T10:07:21;4.8;;;2.6;;
28455;SDS011;15682;56.742;38.866;2024-03-07T10:09:22;7.4;;;2.7;;
28455;SDS011;15682;56.742;38.866;2024-03-07T10:11:21;7.7;;;3.0;;
28455;SDS011;15682;56.742;38.866;2024-03-07T10:13:21;5.9;;;2.9;;
28455;SDS011;15682;56.742;38.866;2024-03-07T10:15:21;8.8;;;3.2;;
28455;SDS011;15682;56.742;38.866;2024-03-07T10:17:23;8.1;;;2.6;;
28455;SDS011;15682;56.742;38.866;2024-03-07T10:19:21;6.6;;;2.9;;
28455;SDS011;15682;56.742;38.866;2024-03-07T10:21:21;5.3;;;2.5;;
28455;SDS011;15682;56.742;38.866;2024-03-07T10:23:21;9.3;;;2.7;;
28455;SDS011;15682;56.742;38.866;2024-03-07T10:25:21;7.7;;;2.8;;
28455;SDS011;15682;56.742;38.866;2024-03-07T10:27:21;10.1;;;3.0;;
28455;SDS011;15682;56.742;38.866;2024-03-07T10:29:21;8.5;;;2.7;;
28455;SDS011;15682;56.742;38.866;2024-03-07T10:31:27;7.2;;;2.8;;
28455;SDS011;15682;56.742;38.866;2024-03-07T10:33:21;8.6;;;2.6;;
28455;SDS011;15682;56.742;38.866;2024-03-07T10:35:21;8.2;;;3.0;;
28455;SDS011;15682;56.742;38.866;2024-03-07T10:37:21;5.9;;;2.9;;
28455;SDS011;15682;56.742;38.866;2024-03-07T10:39:21;5.2;;;2.7;;
28455;SDS011;15682;56.742;38.866;2024-03-07T10:41:21;7.5;;;2.8;;
28455;SDS011;15682;56.742;38.866;2024-03-07T10:43:21;6.7;;;3.2;;
28455;SDS011;15682;56.742;38.866;2024-03-07T10:45:21;10.3;;;3.0;;
28455;SDS011;15682;56.742;38.866;2024-03-07T10:47:21;8.5;;;2.9;;
28455;SDS011;15682;56.742;38.866;2024-03-07T10:49:21;12.4;;;3.3;;
28455;SDS011;15682;56.742;38.866;2024-03-07T10:51:24;12.2;;;3.1;;
28455;SDS011;15682;56.742;38.866;2024-03-07T10:53:24;7.5;;;2.8;;
28455;SDS011;15682;56.742;38.866;2024-03-07T10:55:23;9.8;;;2.9;;
28455;SDS011;15682;56.742;38.866;2024-03-07T10:57:23;21.3;;;4.8;;
28455;SDS011;15682;56.742;38.866;2024-03-07T10:59:22;14.0;;;3.4;;
28455;SDS011;15682;56.742;38.866;2024-03-07T11:01:21;11.5;;;3.5;;
28455;SDS011;15682;56.742;38.866;2024-03-07T11:03:21;6.4;;;3.0;;
28455;SDS011;15682;56.742;38.866;2024-03-07T11:05:21;6.8;;;2.8;;
28455;SDS011;15682;56.742;38.866;2024-03-07T11:07:21;5.1;;;2.4;;
28455;SDS011;15682;56.742;38.866;2024-03-07T11:09:21;7.1;;;2.8;;
28455;SDS011;15682;56.742;38.866;2024-03-07T11:11:21;11.2;;;2.8;;
28455;SDS011;15682;56.742;38.866;2024-03-07T11:13:21;6.7;;;2.8;;
28455;SDS011;15682;56.742;38.866;2024-03-07T11:15:21;12.4;;;3.2;;
28455;SDS011;15682;56.742;38.866;2024-03-07T11:17:21;7.7;;;2.7;;
28455;SDS011;15682;56.742;38.866;2024-03-07T11:19:24;6.3;;;2.9;;
28455;SDS011;15682;56.742;38.866;2024-03-07T11:23:24;6.3;;;3.0;;
28455;SDS011;15682;56.742;38.866;2024-03-07T11:25:21;11.8;;;2.8;;
28455;SDS011;15682;56.742;38.866;2024-03-07T11:27:21;7.5;;;2.7;;
28455;SDS011;15682;56.742;38.866;2024-03-07T11:31:25;7.5;;;3.1;;
28455;SDS011;15682;56.742;38.866;2024-03-07T11:33:21;16.2;;;3.6;;
28455;SDS011;15682;56.742;38.866;2024-03-07T11:35:21;8.7;;;3.2;;
28455;SDS011;15682;56.742;38.866;2024-03-07T11:37:36;7.8;;;2.8;;
28455;SDS011;15682;56.742;38.866;2024-03-07T11:41:21;8.3;;;3.1;;
28455;SDS011;15682;56.742;38.866;2024-03-07T11:43:21;7.2;;;3.0;;
28455;SDS011;15682;56.742;38.866;2024-03-07T11:45:21;10.6;;;3.1;;
28455;SDS011;15682;56.742;38.866;2024-03-07T11:47:21;7.3;;;2.8;;
28455;SDS011;15682;56.742;38.866;2024-03-07T11:49:21;5.4;;;2.8;;
28455;SDS011;15682;56.742;38.866;2024-03-07T11:51:21;10.5;;;3.2;;
28455;SDS011;15682;56.742;38.866;2024-03-07T11:53:21;10.4;;;3.3;;
28455;SDS011;15682;56.742;38.866;2024-03-07T11:55:21;7.3;;;3.0;;
28455;SDS011;15682;56.742;38.866;2024-03-07T11:57:21;11.0;;;3.3;;
28455;SDS011;15682;56.742;38.866;2024-03-07T11:59:21;6.2;;;2.9;;
28455;SDS011;15682;56.742;38.866;2024-03-07T12:01:21;14.1;;;3.4;;
28455;SDS011;15682;56.742;38.866;2024-03-07T12:03:21;6.4;;;2.8;;
28455;SDS011;15682;56.742;38.866;2024-03-07T12:05:21;6.9;;;2.7;;
28455;SDS011;15682;56.742;38.866;2024-03-07T12:07:21;7.0;;;3.0;;
28455;SDS011;15682;56.742;38.866;2024-03-07T12:09:21;9.4;;;2.8;;